createdAt,value
2023-05-04T00:00:39.999Z,7.43
2023-05-04T00:03:14.104Z,7.80
2023-05-04T00:05:41.360Z,7.55
2023-05-04T00:08:09.794Z,9.23
2023-05-04T00:10:36.773Z,8.23
2023-05-04T00:13:03.952Z,7.95
2023-05-04T00:15:30.799Z,7.03
2023-05-04T00:17:58.086Z,7.95
2023-05-04T00:20:24.936Z,8.55
2023-05-04T00:22:51.976Z,7.57
2023-05-04T00:25:18.867Z,10.02
2023-05-04T00:27:46.064Z,8.40
2023-05-04T00:30:13.043Z,7.05
2023-05-04T00:32:40.207Z,10.25
2023-05-04T00:35:07.509Z,8.55
2023-05-04T00:37:34.602Z,9.63
2023-05-04T00:40:01.751Z,9.70
2023-05-04T00:42:28.947Z,11.50
2023-05-04T00:44:55.760Z,7.15
2023-05-04T00:47:25.706Z,7.90
2023-05-04T00:49:52.840Z,13.13
2023-05-04T00:52:20.910Z,8.38
2023-05-04T00:54:47.909Z,8.88
2023-05-04T00:57:16.813Z,7.65
2023-05-04T00:59:43.726Z,9.27
2023-05-04T01:02:10.794Z,9.35
2023-05-04T01:04:37.713Z,8.38
2023-05-04T01:07:30.745Z,10.68
2023-05-04T01:10:09.249Z,11.50
2023-05-04T01:12:42.844Z,9.93
2023-05-04T01:15:10.662Z,9.52
2023-05-04T01:17:38.130Z,9.07
2023-05-04T01:20:05.812Z,9.32
2023-05-04T01:22:33.312Z,9.82
2023-05-04T01:25:00.218Z,8.18
2023-05-04T01:27:36.427Z,7.53
2023-05-04T01:30:12.173Z,10.88
2023-05-04T01:32:41.855Z,8.85
2023-05-04T01:35:11.583Z,9.70
2023-05-04T01:37:38.657Z,10.35
2023-05-04T01:40:06.115Z,11.82
2023-05-04T01:42:33.487Z,10.90
2023-05-04T01:45:03.119Z,9.15
2023-05-04T01:47:30.346Z,14.75
2023-05-04T01:49:57.174Z,9.30
2023-05-04T01:52:24.281Z,8.65
2023-05-04T01:54:51.284Z,8.00
2023-05-04T01:57:18.348Z,8.43
2023-05-04T01:59:45.124Z,14.00
2023-05-04T02:02:12.165Z,5.90
2023-05-04T02:04:38.981Z,8.60
2023-05-04T02:07:06.165Z,5.97
2023-05-04T02:09:33.122Z,5.82
2023-05-04T02:12:00.194Z,6.25
2023-05-04T02:14:27.034Z,7.90
2023-05-04T02:16:54.347Z,6.45
2023-05-04T02:19:21.191Z,4.95
2023-05-04T02:21:48.611Z,4.68
2023-05-04T02:24:15.374Z,4.22
2023-05-04T02:26:42.485Z,5.30
2023-05-04T02:29:09.542Z,5.10
2023-05-04T02:31:36.618Z,5.75
2023-05-04T02:34:03.505Z,5.10
2023-05-04T02:36:30.625Z,4.28
2023-05-04T02:39:00.461Z,5.10
2023-05-04T02:41:27.604Z,4.85
2023-05-04T02:43:54.389Z,4.93
2023-05-04T02:46:21.596Z,4.93
2023-05-04T02:48:48.528Z,4.57
2023-05-04T02:51:15.944Z,4.68
2023-05-04T02:53:42.830Z,6.00
2023-05-04T02:56:09.999Z,5.78
2023-05-04T02:58:36.890Z,3.60
2023-05-04T03:01:04.036Z,6.20
2023-05-04T03:03:31.296Z,4.10
2023-05-04T03:05:58.348Z,4.97
2023-05-04T03:08:29.625Z,4.10
2023-05-04T03:10:56.785Z,6.38
2023-05-04T03:13:23.615Z,4.45
2023-05-04T03:15:50.778Z,5.78
2023-05-04T03:18:17.562Z,6.82
2023-05-04T03:20:44.628Z,6.13
2023-05-04T03:23:11.625Z,4.47
2023-05-04T03:25:38.743Z,3.88
2023-05-04T03:28:05.816Z,4.70
2023-05-04T03:30:33.142Z,5.63
2023-05-04T03:33:00.383Z,4.82
2023-05-04T03:35:39.466Z,4.93
2023-05-04T03:38:07.609Z,5.70
2023-05-04T03:40:34.884Z,4.20
2023-05-04T03:43:01.970Z,3.70
2023-05-04T03:45:29.220Z,4.25
2023-05-04T03:47:56.153Z,3.72
2023-05-04T03:50:23.688Z,5.25
2023-05-04T03:52:50.621Z,3.75
2023-05-04T03:55:17.858Z,3.40
2023-05-04T03:57:44.718Z,4.10
2023-05-04T04:00:12.361Z,3.63
2023-05-04T04:02:39.197Z,3.72
2023-05-04T04:05:07.102Z,4.00
2023-05-04T04:07:33.947Z,4.70
2023-05-04T04:10:01.059Z,6.30
2023-05-04T04:12:27.942Z,3.42
2023-05-04T04:14:55.196Z,3.95
2023-05-04T04:17:22.050Z,4.15
2023-05-04T04:19:49.361Z,2.88
2023-05-04T04:22:16.240Z,5.32
2023-05-04T04:24:43.366Z,4.93
2023-05-04T04:27:10.158Z,4.15
2023-05-04T04:29:37.403Z,3.65
2023-05-04T04:32:04.369Z,4.30
2023-05-04T04:34:32.001Z,3.47
2023-05-04T04:36:59.390Z,5.95
2023-05-04T04:39:26.580Z,3.72
2023-05-04T04:41:53.412Z,4.07
2023-05-04T04:44:20.840Z,4.35
2023-05-04T04:46:48.541Z,2.92
2023-05-04T04:49:17.825Z,4.63
2023-05-04T04:51:44.712Z,4.10
2023-05-04T04:54:11.772Z,5.38
2023-05-04T04:56:41.883Z,3.97
2023-05-04T04:59:10.651Z,2.78
2023-05-04T05:01:37.479Z,2.83
2023-05-04T05:04:05.111Z,5.28
2023-05-04T05:06:31.924Z,5.20
2023-05-04T05:08:59.071Z,4.63
2023-05-04T05:11:25.923Z,5.00
2023-05-04T05:13:53.023Z,2.78
2023-05-04T05:16:19.972Z,2.75
2023-05-04T05:18:47.888Z,3.05
2023-05-04T05:21:14.698Z,2.83
2023-05-04T05:23:41.899Z,4.72
2023-05-04T05:26:08.894Z,2.83
2023-05-04T05:28:35.954Z,3.55
2023-05-04T05:31:02.920Z,3.78
2023-05-04T05:33:30.076Z,3.08
2023-05-04T05:35:56.934Z,3.25
2023-05-04T05:38:24.348Z,8.32
2023-05-04T05:40:51.533Z,3.20
2023-05-04T05:43:18.669Z,3.65
2023-05-04T05:45:45.510Z,3.38
2023-05-04T05:48:12.657Z,3.22
2023-05-04T05:50:39.612Z,3.63
2023-05-04T05:53:06.739Z,4.60
2023-05-04T05:55:33.557Z,4.55
2023-05-04T05:58:00.751Z,2.58
2023-05-04T06:00:27.749Z,3.83
2023-05-04T06:02:56.035Z,3.83
2023-05-04T06:05:23.921Z,2.78
2023-05-04T06:07:51.068Z,3.45
2023-05-04T06:10:18.020Z,3.22
2023-05-04T06:12:45.189Z,4.22
2023-05-04T06:15:14.340Z,4.82
2023-05-04T06:17:41.973Z,6.95
2023-05-04T06:20:09.420Z,4.13
2023-05-04T06:22:36.624Z,5.80
2023-05-04T06:25:07.034Z,2.42
2023-05-04T06:27:35.277Z,3.45
2023-05-04T06:30:02.257Z,2.88
2023-05-04T06:32:29.576Z,3.05
2023-05-04T06:34:56.580Z,3.15
2023-05-04T06:37:23.654Z,6.50
2023-05-04T06:39:50.712Z,2.95
2023-05-04T06:42:17.942Z,4.75
2023-05-04T06:44:44.844Z,4.22
2023-05-04T06:47:12.492Z,4.43
2023-05-04T06:49:39.355Z,3.22
2023-05-04T06:52:06.548Z,3.70
2023-05-04T06:54:33.393Z,4.18
2023-05-04T06:57:02.788Z,6.38
2023-05-04T06:59:29.662Z,2.90
2023-05-04T07:01:56.977Z,3.90
2023-05-04T07:04:24.275Z,3.20
2023-05-04T07:06:51.581Z,5.20
2023-05-04T07:09:22.280Z,5.03
2023-05-04T07:11:49.388Z,2.40
2023-05-04T07:14:16.341Z,5.78
2023-05-04T07:16:43.706Z,2.63
2023-05-04T07:19:10.853Z,13.43
2023-05-04T07:21:37.961Z,3.22
2023-05-04T07:24:06.975Z,4.00
2023-05-04T07:26:34.171Z,4.00
2023-05-04T07:29:01.072Z,3.03
2023-05-04T07:31:30.217Z,2.58
2023-05-04T07:33:57.718Z,3.40
2023-05-04T07:36:26.643Z,3.95
2023-05-04T07:38:54.215Z,2.88
2023-05-04T07:41:21.666Z,4.82
2023-05-04T07:43:48.532Z,2.70
2023-05-04T07:46:16.532Z,4.10
2023-05-04T07:48:43.486Z,3.47
2023-05-04T07:51:14.718Z,3.30
2023-05-04T07:53:43.255Z,4.30
2023-05-04T07:56:13.801Z,3.22
2023-05-04T07:58:41.304Z,3.70
2023-05-04T08:01:08.474Z,3.35
2023-05-04T08:03:35.394Z,4.20
2023-05-04T08:06:02.566Z,4.32
2023-05-04T08:08:29.579Z,2.28
2023-05-04T08:11:07.869Z,4.05
2023-05-04T08:13:45.885Z,3.50
2023-05-04T08:16:13.159Z,2.97
2023-05-04T08:18:39.985Z,5.05
2023-05-04T08:21:07.406Z,5.35
2023-05-04T08:23:34.569Z,8.68
2023-05-04T08:26:03.468Z,3.20
2023-05-04T08:28:31.261Z,3.20
2023-05-04T08:30:58.353Z,3.50
2023-05-04T08:33:25.340Z,6.28
2023-05-04T08:35:52.670Z,4.03
2023-05-04T08:38:19.451Z,3.53
2023-05-04T08:40:47.410Z,3.15
2023-05-04T08:43:16.304Z,4.20
2023-05-04T08:45:43.595Z,2.63
2023-05-04T08:48:10.443Z,2.72
2023-05-04T08:50:38.392Z,4.72
2023-05-04T08:53:12.245Z,5.80
2023-05-04T08:55:41.506Z,4.22
2023-05-04T08:58:12.798Z,2.38
2023-05-04T09:00:43.490Z,2.30
2023-05-04T09:03:11.307Z,3.63
2023-05-04T09:05:39.073Z,3.55
2023-05-04T09:08:06.876Z,3.25
2023-05-04T09:10:34.740Z,2.72
2023-05-04T09:13:01.987Z,3.78
2023-05-04T09:15:29.216Z,3.70
2023-05-04T09:18:09.887Z,2.88
2023-05-04T09:20:45.247Z,5.25
2023-05-04T09:23:13.254Z,5.22
2023-05-04T09:25:51.858Z,4.80
2023-05-04T09:28:21.623Z,3.75
2023-05-04T09:30:51.782Z,4.55
2023-05-04T09:33:25.728Z,3.03
2023-05-04T09:35:53.036Z,4.70
2023-05-04T09:38:31.608Z,3.78
2023-05-04T09:41:01.795Z,5.15
2023-05-04T09:43:41.637Z,3.10
2023-05-04T09:46:19.463Z,4.68
2023-05-04T09:48:53.829Z,4.13
2023-05-04T09:51:26.866Z,4.65
2023-05-04T09:53:54.057Z,3.80
2023-05-04T09:56:30.082Z,4.38
2023-05-04T09:59:00.164Z,1.98
2023-05-04T10:01:29.549Z,3.40
2023-05-04T10:03:56.899Z,4.15
2023-05-04T10:06:24.815Z,6.03
2023-05-04T10:08:51.930Z,4.43
2023-05-04T10:11:20.314Z,4.00
2023-05-04T10:13:48.705Z,7.25
2023-05-04T10:16:41.603Z,2.83
2023-05-04T10:19:22.677Z,3.53
2023-05-04T10:22:34.533Z,3.13
2023-05-04T10:25:19.933Z,4.28
2023-05-04T10:28:13.161Z,2.42
2023-05-04T10:30:40.190Z,3.53
2023-05-04T10:33:07.912Z,1.73
2023-05-04T10:35:34.825Z,3.80
2023-05-04T10:38:02.242Z,3.03
2023-05-04T10:41:21.465Z,3.25
2023-05-04T10:43:53.580Z,3.15
2023-05-04T10:46:21.940Z,2.88
2023-05-04T10:48:50.232Z,3.92
2023-05-04T10:51:25.328Z,2.70
2023-05-04T10:53:55.683Z,2.50
2023-05-04T10:56:26.982Z,3.13
2023-05-04T10:58:55.139Z,4.10
2023-05-04T11:01:22.256Z,2.92
2023-05-04T11:03:49.908Z,6.88
2023-05-04T11:06:24.933Z,2.90
2023-05-04T11:09:02.784Z,4.57
2023-05-04T11:11:29.828Z,4.05
2023-05-04T11:13:57.336Z,3.92
2023-05-04T11:16:27.764Z,3.90
2023-05-04T11:18:55.372Z,3.25
2023-05-04T11:21:28.233Z,5.43
2023-05-04T11:26:26.283Z,3.10
2023-05-04T11:28:53.390Z,4.85
2023-05-04T11:31:21.408Z,3.83
2023-05-04T11:33:54.578Z,3.17
2023-05-04T11:36:22.839Z,3.58
2023-05-04T11:38:50.976Z,2.90
2023-05-04T11:41:25.966Z,2.60
2023-05-04T11:43:53.654Z,3.38
2023-05-04T11:46:20.664Z,2.92
2023-05-04T11:48:48.207Z,5.18
2023-05-04T11:51:15.021Z,3.72
2023-05-04T11:53:42.101Z,3.35
2023-05-04T11:56:09.767Z,4.18
2023-05-04T11:58:37.376Z,4.18
2023-05-04T12:01:04.453Z,2.75
2023-05-04T12:03:53.067Z,5.70
2023-05-04T12:06:32.156Z,5.07
2023-05-04T12:09:06.832Z,3.65
2023-05-04T12:11:35.251Z,4.25
2023-05-04T12:14:05.400Z,6.55
2023-05-04T12:16:32.783Z,4.18
2023-05-04T12:19:06.397Z,4.90
2023-05-04T12:21:34.842Z,6.47
2023-05-04T12:24:03.469Z,3.58
2023-05-04T12:26:30.607Z,3.45
2023-05-04T12:28:57.756Z,4.65
2023-05-04T12:31:25.559Z,4.20
2023-05-04T12:33:53.069Z,4.45
2023-05-04T12:36:21.369Z,3.65
2023-05-04T12:38:48.449Z,3.42
2023-05-04T12:41:21.818Z,3.47
2023-05-04T12:43:49.431Z,4.13
2023-05-04T12:46:21.314Z,3.55
2023-05-04T12:48:48.584Z,6.68
2023-05-04T12:51:15.526Z,5.35
2023-05-04T12:53:43.738Z,3.60
2023-05-04T12:56:10.632Z,6.15
2023-05-04T12:58:38.009Z,3.35
2023-05-04T13:01:04.966Z,3.60
2023-05-04T13:03:32.185Z,6.90
2023-05-04T13:05:59.139Z,4.45
2023-05-04T13:08:26.283Z,10.13
2023-05-04T13:10:53.130Z,4.38
2023-05-04T13:13:26.256Z,5.05
2023-05-04T13:15:53.217Z,2.80
2023-05-04T13:18:20.683Z,4.85
2023-05-04T13:20:47.562Z,3.28
2023-05-04T13:23:15.314Z,3.10
2023-05-04T13:25:44.910Z,6.25
2023-05-04T13:28:12.135Z,4.05
2023-05-04T13:30:39.201Z,4.90
2023-05-04T13:33:16.762Z,3.63
2023-05-04T13:35:53.096Z,2.40
2023-05-04T13:38:20.457Z,2.92
2023-05-04T13:40:48.046Z,3.13
2023-05-04T13:43:15.230Z,5.00
2023-05-04T13:45:42.257Z,2.38
2023-05-04T13:48:09.391Z,2.70
2023-05-04T13:50:36.375Z,3.38
2023-05-04T13:53:03.480Z,3.55
2023-05-04T13:55:30.344Z,4.30
2023-05-04T13:57:57.526Z,2.90
2023-05-04T14:00:24.414Z,4.72
2023-05-04T14:02:51.766Z,6.38
2023-05-04T14:05:18.888Z,5.13
2023-05-04T14:07:45.936Z,3.63
2023-05-04T14:10:13.124Z,4.05
2023-05-04T14:12:40.217Z,2.88
2023-05-04T14:15:07.917Z,4.05
2023-05-04T14:17:35.125Z,6.38
2023-05-04T14:20:01.997Z,7.20
2023-05-04T14:22:29.095Z,3.38
2023-05-04T14:24:56.039Z,4.97
2023-05-04T14:27:24.010Z,3.28
2023-05-04T14:29:52.373Z,4.50
2023-05-04T14:32:19.522Z,3.08
2023-05-04T14:34:49.639Z,5.85
2023-05-04T14:37:16.805Z,3.10
2023-05-04T14:39:44.591Z,3.10
2023-05-04T14:42:11.676Z,2.95
2023-05-04T14:44:38.557Z,3.33
2023-05-04T14:47:07.792Z,5.55
2023-05-04T14:49:37.371Z,6.68
2023-05-04T14:52:05.227Z,3.40
2023-05-04T14:54:32.614Z,4.72
2023-05-04T14:57:00.044Z,4.10
2023-05-04T14:59:27.185Z,2.88
2023-05-04T15:01:55.431Z,4.68
2023-05-04T15:04:22.713Z,3.08
2023-05-04T15:06:49.878Z,5.32
2023-05-04T15:09:16.754Z,5.82
2023-05-04T15:11:43.953Z,4.03
2023-05-04T15:14:11.233Z,4.55
2023-05-04T15:16:38.620Z,4.97
2023-05-04T15:19:05.429Z,5.88
2023-05-04T15:21:32.610Z,4.43
2023-05-04T15:23:59.445Z,3.90
2023-05-04T15:26:26.606Z,3.63
2023-05-04T15:28:54.176Z,4.65
2023-05-04T15:31:21.750Z,3.90
2023-05-04T15:33:48.850Z,5.47
2023-05-04T15:36:16.078Z,3.55
2023-05-04T15:38:43.712Z,5.18
2023-05-04T15:41:10.914Z,4.40
2023-05-04T15:43:37.706Z,4.38
2023-05-04T15:46:04.841Z,3.67
2023-05-04T15:48:31.776Z,4.57
2023-05-04T15:50:58.981Z,4.20
2023-05-04T15:53:26.038Z,4.13
2023-05-04T15:55:53.193Z,6.10
2023-05-04T15:58:20.019Z,6.65
2023-05-04T16:00:47.363Z,4.40
2023-05-04T16:03:14.306Z,4.63
2023-05-04T16:05:41.530Z,7.40
2023-05-04T16:08:08.337Z,6.93
2023-05-04T16:10:36.251Z,4.63
2023-05-04T16:13:05.252Z,5.38
2023-05-04T16:15:32.511Z,6.20
2023-05-04T16:17:59.512Z,5.35
2023-05-04T16:20:28.348Z,5.00
2023-05-04T16:22:55.227Z,7.55
2023-05-04T16:25:22.384Z,5.55
2023-05-04T16:27:49.249Z,5.32
2023-05-04T16:30:17.321Z,4.65
2023-05-04T16:32:44.755Z,7.18
2023-05-04T16:35:12.093Z,3.92
2023-05-04T16:37:39.056Z,4.35
2023-05-04T16:40:16.320Z,7.03
2023-05-04T16:42:43.873Z,6.30
2023-05-04T16:45:13.594Z,5.07
2023-05-04T16:47:44.450Z,6.82
2023-05-04T16:50:12.518Z,4.38
2023-05-04T16:52:39.998Z,5.50
2023-05-04T16:55:10.643Z,4.30
2023-05-04T16:57:41.535Z,4.55
2023-05-04T17:00:10.782Z,5.00
2023-05-04T17:02:37.948Z,6.20
2023-05-04T17:05:06.829Z,5.90
2023-05-04T17:07:34.243Z,4.00
2023-05-04T17:10:01.518Z,4.05
2023-05-04T17:12:29.038Z,5.03
2023-05-04T17:14:56.607Z,5.30
2023-05-04T17:17:23.482Z,4.10
2023-05-04T17:19:50.733Z,6.47
2023-05-04T17:22:17.572Z,5.10
2023-05-04T17:24:45.658Z,4.88
2023-05-04T17:27:13.132Z,4.00
2023-05-04T17:29:41.120Z,5.97
2023-05-04T17:32:08.661Z,5.60
2023-05-04T17:34:37.163Z,4.35
2023-05-04T17:37:04.294Z,4.20
2023-05-04T17:39:31.728Z,4.95
2023-05-04T17:41:59.101Z,4.82
2023-05-04T17:44:28.134Z,4.88
2023-05-04T17:46:55.659Z,7.63
2023-05-04T17:49:22.484Z,9.02
2023-05-04T17:51:49.711Z,7.28
2023-05-04T17:54:17.083Z,5.53
2023-05-04T17:56:44.269Z,5.13
2023-05-04T17:59:11.176Z,5.05
2023-05-04T18:01:38.292Z,4.60
2023-05-04T18:04:05.474Z,5.65
2023-05-04T18:06:32.785Z,9.35
2023-05-04T18:09:00.972Z,6.03
2023-05-04T18:11:28.249Z,5.45
2023-05-04T18:13:56.531Z,10.57
2023-05-04T18:16:24.739Z,7.07
2023-05-04T18:18:52.061Z,5.75
2023-05-04T18:21:19.276Z,5.60
2023-05-04T18:23:48.777Z,7.43
2023-05-04T18:26:20.321Z,8.85
2023-05-04T18:28:47.092Z,5.38
2023-05-04T18:31:14.494Z,8.85
2023-05-04T18:33:42.079Z,6.85
2023-05-04T18:36:09.237Z,6.13
2023-05-04T18:38:37.174Z,5.45
2023-05-04T18:41:04.933Z,5.72
2023-05-04T18:43:31.748Z,6.18
2023-05-04T18:46:05.734Z,6.03
2023-05-04T18:48:32.674Z,5.85
2023-05-04T18:51:00.055Z,6.60
2023-05-04T18:53:27.954Z,5.57
2023-05-04T18:56:05.848Z,6.03
2023-05-04T18:58:33.341Z,5.97
2023-05-04T19:01:00.465Z,8.05
2023-05-04T19:03:27.616Z,6.50
2023-05-04T19:05:55.763Z,10.05
2023-05-04T19:08:22.587Z,7.88
2023-05-04T19:10:50.281Z,7.50
2023-05-04T19:13:17.667Z,12.90
2023-05-04T19:15:45.202Z,7.57
2023-05-04T19:18:12.076Z,7.53
2023-05-04T19:20:39.749Z,9.60
2023-05-04T19:23:06.679Z,6.32
2023-05-04T19:25:35.133Z,8.00
2023-05-04T19:28:08.468Z,7.82
2023-05-04T19:30:39.923Z,7.90
2023-05-04T19:33:08.467Z,7.20
2023-05-04T19:35:36.140Z,9.18
2023-05-04T19:38:03.082Z,7.30
2023-05-04T19:40:30.197Z,6.75
2023-05-04T19:42:57.061Z,6.22
2023-05-04T19:45:24.496Z,10.05
2023-05-04T19:47:52.461Z,8.35
2023-05-04T19:50:19.852Z,7.47
2023-05-04T19:52:46.828Z,8.23
2023-05-04T19:55:14.147Z,8.95
2023-05-04T19:57:41.250Z,6.68
2023-05-04T20:00:10.157Z,8.30
2023-05-04T20:02:38.229Z,7.80
2023-05-04T20:05:08.853Z,7.80
2023-05-04T20:07:35.950Z,8.68
2023-05-04T20:10:03.804Z,9.02
2023-05-04T20:12:30.933Z,7.18
2023-05-04T20:14:58.101Z,8.05
2023-05-04T20:17:25.014Z,8.77
2023-05-04T20:19:52.373Z,9.23
2023-05-04T20:22:19.185Z,7.30
2023-05-04T20:24:47.006Z,8.85
2023-05-04T20:27:13.831Z,8.35
2023-05-04T20:29:41.011Z,8.38
2023-05-04T20:32:08.969Z,8.43
2023-05-04T20:34:39.415Z,13.25
2023-05-04T20:37:07.630Z,13.07
2023-05-04T20:39:39.602Z,8.57
2023-05-04T20:42:06.726Z,8.48
2023-05-04T20:44:33.822Z,10.63
2023-05-04T20:47:00.855Z,9.25
2023-05-04T20:49:28.931Z,8.70
2023-05-04T20:51:55.717Z,7.68
2023-05-04T20:54:22.900Z,7.93
2023-05-04T20:56:49.795Z,8.73
2023-05-04T20:59:17.087Z,12.88
2023-05-04T21:01:43.897Z,10.23
2023-05-04T21:04:11.192Z,9.10
2023-05-04T21:06:38.051Z,10.82
2023-05-04T21:09:05.693Z,8.20
2023-05-04T21:11:32.520Z,10.65
2023-05-04T21:13:59.608Z,7.32
2023-05-04T21:16:26.531Z,7.70
2023-05-04T21:18:53.754Z,9.23
2023-05-04T21:21:20.863Z,9.70
2023-05-04T21:23:47.925Z,7.78
2023-05-04T21:26:14.915Z,7.97
2023-05-04T21:28:42.090Z,8.85
2023-05-04T21:31:09.643Z,6.72
2023-05-04T21:33:36.908Z,5.43
2023-05-04T21:36:19.267Z,5.68
2023-05-04T21:38:46.480Z,6.72
2023-05-04T21:41:16.987Z,6.35
2023-05-04T21:43:44.148Z,5.35
2023-05-04T21:46:12.155Z,6.80
2023-05-04T21:48:40.307Z,5.38
2023-05-04T21:51:07.221Z,7.15
2023-05-04T21:53:34.388Z,4.32
2023-05-04T21:56:05.735Z,6.28
2023-05-04T21:58:32.931Z,4.32
2023-05-04T22:00:59.791Z,5.38
2023-05-04T22:03:29.048Z,5.80
2023-05-04T22:05:58.360Z,5.25
2023-05-04T22:08:28.477Z,4.40
2023-05-04T22:10:56.986Z,5.43
2023-05-04T22:13:27.848Z,5.35
2023-05-04T22:18:29.962Z,7.07
2023-05-04T22:20:56.870Z,6.13
2023-05-04T22:23:23.969Z,5.28
2023-05-04T22:25:50.917Z,5.03
2023-05-04T22:28:18.015Z,4.15
2023-05-04T22:30:52.441Z,4.57
2023-05-04T22:33:22.196Z,4.63
2023-05-04T22:35:49.134Z,5.72
2023-05-04T22:38:16.300Z,3.30
2023-05-04T22:40:43.657Z,7.50
2023-05-04T22:43:10.821Z,4.45
2023-05-04T22:45:38.972Z,3.88
2023-05-04T22:48:06.242Z,5.75
2023-05-04T22:50:33.173Z,4.22
2023-05-04T22:53:00.392Z,3.78
2023-05-04T22:55:27.299Z,4.85
2023-05-04T22:57:54.453Z,4.18
2023-05-04T23:00:21.436Z,4.07
2023-05-04T23:02:48.627Z,4.13
2023-05-04T23:05:15.666Z,3.00
2023-05-04T23:07:42.801Z,4.68
2023-05-04T23:10:10.418Z,3.28
2023-05-04T23:12:37.945Z,4.95
2023-05-04T23:15:06.522Z,4.10
2023-05-04T23:17:36.173Z,5.82
2023-05-04T23:20:03.568Z,5.32
2023-05-04T23:22:30.866Z,4.20
2023-05-04T23:24:57.744Z,6.47
2023-05-04T23:27:24.816Z,3.25
2023-05-04T23:29:51.649Z,3.95
2023-05-04T23:32:18.819Z,5.75
2023-05-04T23:34:47.085Z,5.43
2023-05-04T23:37:14.200Z,6.00
2023-05-04T23:39:40.998Z,4.90
2023-05-04T23:42:08.134Z,4.32
2023-05-04T23:44:34.922Z,3.20
2023-05-04T23:47:02.110Z,5.13
2023-05-04T23:49:28.901Z,3.20
2023-05-04T23:51:56.427Z,4.68
2023-05-04T23:54:23.257Z,4.10
2023-05-04T23:56:50.457Z,3.00
2023-05-04T23:59:19.894Z,5.05
